Time;durP1;ratioP1;P1;durP2;ratioP2;P2;SDS_P1;SDS_P2;PMS_P1;PMS_P2;Temp;Humidity;BMP_temperature;BMP_pressure;BME280_temperature;BME280_humidity;BME280_pressure;Samples;Min_cycle;Max_cycle;Signal;HPM_P1;HPM_P2
2021/12/27 00:00:10;;;;;;;98.20;41.70;;;;;;;-12.25;78.03;100710.38;87907;1282;87495;-66
2021/12/27 00:02:40;;;;;;;94.00;42.10;;;;;;;-12.24;78.02;100708.61;87901;1282;96323;-66
2021/12/27 00:04:49;;;;;;;98.10;40.30;;;;;;;-12.25;78.02;100708.46;87890;1282;79494;-64
2021/12/27 00:07:03;;;;;;;102.60;41.00;;;;;;;-12.30;78.09;100704.27;87895;1279;80765;-62
2021/12/27 00:09:11;;;;;;;;;;;;;;;-12.37;78.33;100705.31;87892;1285;97220;-62
2021/12/27 00:11:23;;;;;;;85.40;38.00;;;;;;;-12.39;78.19;100701.73;87791;1283;86939;-62
2021/12/27 00:13:33;;;;;;;91.00;41.20;;;;;;;-12.33;78.32;100707.30;87861;1285;94716;-62
2021/12/27 00:15:44;;;;;;;88.00;39.80;;;;;;;-12.27;78.04;100708.18;87890;1279;80052;-62
2021/12/27 00:17:54;;;;;;;90.70;39.50;;;;;;;-12.32;77.79;100704.83;87880;1282;81647;-62
2021/12/27 00:20:10;;;;;;;90.50;38.40;;;;;;;-12.37;77.81;100702.53;87867;1284;99333;-63
2021/12/27 00:22:24;;;;;;;97.80;41.40;;;;;;;-12.43;77.78;100707.71;87892;1285;87318;-62
2021/12/27 00:24:35;;;;;;;92.40;40.10;;;;;;;-12.49;78.01;100709.45;87905;1282;95451;-61
2021/12/27 00:26:48;;;;;;;86.70;38.60;;;;;;;-12.54;78.18;100712.16;87892;1285;82048;-62
2021/12/27 00:29:00;;;;;;;85.60;38.80;;;;;;;-12.50;78.28;100715.69;87920;1285;82102;-62
2021/12/27 00:31:10;;;;;;;91.50;40.30;;;;;;;-12.50;78.27;100719.68;87882;1285;99179;-62
2021/12/27 00:33:20;;;;;;;91.90;39.90;;;;;;;-12.43;78.27;100716.58;87904;1283;89387;-66
2021/12/27 00:35:32;;;;;;;90.80;40.50;;;;;;;-12.38;78.07;100714.02;87889;1282;95120;-62
2021/12/27 00:37:45;;;;;;;100.70;41.90;;;;;;;-12.44;78.18;100715.90;87888;1283;80473;-62
2021/12/27 00:39:54;;;;;;;97.80;40.60;;;;;;;-12.42;78.20;100721.75;87719;1285;82479;-63
2021/12/27 00:42:08;;;;;;;91.60;39.00;;;;;;;-12.44;78.01;100726.31;87886;1282;98595;-62
2021/12/27 00:44:19;;;;;;;97.10;39.50;;;;;;;-12.56;78.05;100724.52;87895;1279;87773;-62
2021/12/27 00:46:30;;;;;;;103.50;40.60;;;;;;;-12.64;78.23;100724.02;87904;1282;95644;-67
2021/12/27 00:48:39;;;;;;;102.70;40.30;;;;;;;-12.66;78.19;100724.25;87873;1281;78862;-66
2021/12/27 00:50:52;;;;;;;91.60;39.20;;;;;;;-12.72;77.82;100725.61;87877;1278;80154;-66
2021/12/27 00:53:03;;;;;;;97.40;40.20;;;;;;;-12.69;78.03;100724.48;87889;1281;96289;-65
2021/12/27 00:55:17;;;;;;;91.00;38.80;;;;;;;-12.71;78.08;100728.35;87894;1284;87662;-66
2021/12/27 00:57:27;;;;;;;92.20;40.50;;;;;;;-12.74;78.28;100730.16;87869;1282;93663;-68
2021/12/27 00:59:36;;;;;;;85.50;39.00;;;;;;;-12.73;78.14;100728.41;87911;1282;81376;-68
2021/12/27 01:01:46;;;;;;;92.60;41.00;;;;;;;-12.74;78.26;100724.62;87889;1281;81349;-68
2021/12/27 01:03:56;;;;;;;82.50;36.90;;;;;;;-12.76;78.16;100726.41;87861;1278;97210;-68
2021/12/27 01:06:09;;;;;;;97.80;39.90;;;;;;;-12.76;78.07;100722.24;87925;1283;87910;-69
2021/12/27 01:08:18;;;;;;;90.80;37.50;;;;;;;-12.76;77.98;100723.11;87880;1282;93837;-65
2021/12/27 01:13:04;;;;;;;84.80;35.50;;;;;;;-12.75;78.06;100713.54;87829;1283;82022;-66
2021/12/27 01:15:35;;;;;;;101.20;39.70;;;;;;;-12.85;77.81;100716.90;87867;1283;98807;-62
2021/12/27 01:17:48;;;;;;;81.70;35.40;;;;;;;-12.88;77.72;100722.19;87908;1283;88065;-64
2021/12/27 01:19:57;;;;;;;83.60;36.30;;;;;;;-12.98;78.14;100729.17;87888;1285;93575;-61
2021/12/27 01:22:08;;;;;;;86.50;35.80;;;;;;;-13.02;77.86;100728.41;87912;1285;81294;-61
2021/12/27 01:24:20;;;;;;;82.20;36.70;;;;;;;-13.02;78.08;100729.44;87927;1283;82023;-63
2021/12/27 01:26:30;;;;;;;93.10;38.50;;;;;;;-13.00;78.04;100730.08;87897;1282;99663;-61
2021/12/27 01:28:41;;;;;;;91.40;37.60;;;;;;;-13.00;77.74;100729.91;87902;1281;88602;-61
2021/12/27 01:30:54;;;;;;;94.30;37.60;;;;;;;-12.97;77.82;100727.74;87877;1285;94941;-67
2021/12/27 01:33:04;;;;;;;93.30;37.90;;;;;;;-12.96;77.65;100723.56;87863;1282;81083;-71
2021/12/27 01:35:13;;;;;;;87.90;35.60;;;;;;;-12.99;77.58;100725.89;87896;1283;80710;-66
2021/12/27 01:37:23;;;;;;;89.50;37.60;;;;;;;-13.07;77.74;100726.78;87893;1285;99128;-65
2021/12/27 01:39:33;;;;;;;87.50;34.90;;;;;;;-13.07;77.96;100729.72;87897;1282;87081;-66
2021/12/27 01:41:42;;;;;;;94.90;37.90;;;;;;;-13.04;77.90;100731.58;87859;1283;91874;-66
2021/12/27 01:43:54;;;;;;;90.90;38.70;;;;;;;-12.98;77.98;100733.52;87869;1279;80477;-67
2021/12/27 01:46:08;;;;;;;88.80;36.90;;;;;;;-12.97;77.81;100737.64;87906;1285;82463;-66
2021/12/27 01:48:21;;;;;;;87.70;38.10;;;;;;;-12.95;78.13;100734.83;87867;1285;97498;-69
2021/12/27 01:50:31;;;;;;;93.70;38.20;;;;;;;-12.92;77.97;100741.69;87891;1285;88503;-69
2021/12/27 01:52:43;;;;;;;85.20;37.40;;;;;;;-12.91;78.11;100738.70;87882;1283;94371;-69
2021/12/27 01:54:53;;;;;;;86.90;37.40;;;;;;;-12.93;77.92;100736.68;87869;1285;80125;-63
2021/12/27 01:57:04;;;;;;;86.50;39.60;;;;;;;-12.97;77.89;100737.80;87885;1285;80307;-63
2021/12/27 01:59:14;;;;;;;92.30;37.40;;;;;;;-12.96;77.71;100740.73;87885;1282;98051;-64
2021/12/27 02:01:28;;;;;;;93.40;38.20;;;;;;;-13.03;77.54;100742.98;87857;1282;86947;-68
2021/12/27 02:03:40;;;;;;;91.30;36.90;;;;;;;-13.15;77.55;100739.80;87863;1279;95291;-68
2021/12/27 02:05:50;;;;;;;99.50;39.60;;;;;;;-13.18;77.63;100747.16;87869;1277;83597;-62
2021/12/27 02:07:59;;;;;;;97.30;40.00;;;;;;;-13.16;77.77;100748.48;87908;1285;80997;-62
2021/12/27 02:10:11;;;;;;;91.60;39.20;;;;;;;-13.17;77.82;100750.42;87812;1279;98895;-64
2021/12/27 02:12:21;;;;;;;90.10;36.70;;;;;;;-13.15;77.71;100750.91;87892;1285;87750;-62
2021/12/27 02:14:31;;;;;;;96.20;38.20;;;;;;;-13.15;78.01;100751.58;87861;1279;95017;-61
2021/12/27 02:16:40;;;;;;;91.40;39.70;;;;;;;-13.12;77.85;100751.35;87889;1283;79527;-69
2021/12/27 02:18:53;;;;;;;78.80;35.40;;;;;;;-13.11;77.71;100752.91;87867;1279;81915;-66
2021/12/27 02:21:05;;;;;;;87.50;37.80;;;;;;;-13.05;77.76;100756.70;87917;1285;97932;-64
2021/12/27 02:23:18;;;;;;;93.60;39.20;;;;;;;-13.00;77.57;100752.80;87887;1282;87823;-61
2021/12/27 02:25:28;;;;;;;93.10;36.90;;;;;;;-12.95;77.58;100749.21;87906;1285;95261;-63
2021/12/27 02:27:37;;;;;;;89.00;39.40;;;;;;;-13.00;77.58;100749.48;87728;1277;79008;-61
2021/12/27 02:29:50;;;;;;;90.40;38.30;;;;;;;-13.05;77.71;100746.00;87548;1284;449413;-65
2021/12/27 02:32:00;;;;;;;78.10;32.10;;;;;;;-13.14;77.79;100749.83;87870;1283;98955;-68
2021/12/27 02:34:10;;;;;;;87.20;36.40;;;;;;;-13.16;77.98;100751.43;87872;1284;89281;-67
2021/12/27 02:36:24;;;;;;;84.00;37.00;;;;;;;-13.16;77.97;100756.29;87823;1282;95914;-61
2021/12/27 02:38:35;;;;;;;90.60;38.30;;;;;;;-13.23;77.79;100751.60;87877;1275;78764;-62
2021/12/27 02:40:46;;;;;;;94.60;37.40;;;;;;;-13.23;77.69;100755.41;87921;1285;81076;-61
2021/12/27 02:43:04;;;;;;;84.50;36.70;;;;;;;-13.25;77.91;100755.96;87894;1284;98906;-61
2021/12/27 02:45:17;;;;;;;85.40;35.90;;;;;;;-13.25;77.68;100759.27;87899;1283;87292;-67
2021/12/27 02:47:27;;;;;;;84.00;35.00;;;;;;;-13.29;77.69;100756.57;87892;1286;95644;-68
2021/12/27 02:49:36;;;;;;;89.50;36.00;;;;;;;-13.31;77.77;100748.80;87870;1285;80269;-68
2021/12/27 02:51:46;;;;;;;81.60;35.60;;;;;;;-13.32;77.74;100750.06;87850;1283;82948;-66
2021/12/27 02:53:55;;;;;;;82.90;35.90;;;;;;;-13.35;77.68;100748.02;87881;1285;97648;-67
2021/12/27 02:56:06;;;;;;;90.20;35.50;;;;;;;-13.35;77.82;100752.19;87874;1280;87437;-62
2021/12/27 02:58:27;;;;;;;86.80;35.20;;;;;;;-13.32;77.91;100751.44;87866;1285;94746;-62
2021/12/27 03:00:39;;;;;;;90.60;36.70;;;;;;;-13.33;77.88;100752.50;87842;1282;80575;-66
2021/12/27 03:02:52;;;;;;;85.00;34.70;;;;;;;-13.30;77.85;100751.92;87921;1287;82214;-66
2021/12/27 03:05:03;;;;;;;92.80;37.50;;;;;;;-13.31;77.84;100751.07;87890;1284;99320;-63
2021/12/27 03:07:12;;;;;;;87.50;35.80;;;;;;;-13.35;77.83;100744.91;87877;1283;89666;-65
2021/12/27 03:09:21;;;;;;;82.50;35.90;;;;;;;-13.37;77.95;100743.74;87860;1281;95977;-64
2021/12/27 03:11:31;;;;;;;90.10;36.80;;;;;;;-13.36;77.97;100743.55;87845;1283;82702;-64
2021/12/27 03:13:45;;;;;;;88.20;37.60;;;;;;;-13.36;77.71;100742.70;87857;1281;83024;-63
2021/12/27 03:15:57;;;;;;;86.60;38.80;;;;;;;-13.33;77.77;100739.34;87897;1273;98323;-69
2021/12/27 03:18:16;;;;;;;90.30;38.90;;;;;;;-13.38;77.73;100738.75;87867;1284;87358;-68
2021/12/27 03:20:29;;;;;;;92.00;36.80;;;;;;;-13.40;77.44;100733.41;87882;1282;95397;-65
2021/12/27 03:22:38;;;;;;;97.60;40.30;;;;;;;-13.38;77.62;100735.45;87897;1275;79383;-66
2021/12/27 03:24:55;;;;;;;103.70;41.40;;;;;;;-13.40;77.60;100729.25;87885;1285;81272;-61
2021/12/27 03:27:04;;;;;;;104.50;41.00;;;;;;;-13.41;77.48;100727.38;87856;1285;98711;-61
2021/12/27 03:29:14;;;;;;;106.80;41.80;;;;;;;-13.45;77.61;100734.75;87714;1284;88553;-62
2021/12/27 03:31:30;;;;;;;101.30;40.10;;;;;;;-13.49;77.62;100734.82;87881;1282;94563;-63
2021/12/27 03:33:43;;;;;;;100.70;39.50;;;;;;;-13.47;77.43;100733.57;87836;1282;81805;-61
2021/12/27 03:36:01;;;;;;;100.20;40.70;;;;;;;-13.45;77.33;100729.21;87883;1281;81197;-61
2021/12/27 03:38:12;;;;;;;88.40;39.00;;;;;;;-13.50;77.34;100732.94;87878;1283;99476;-63
2021/12/27 03:40:22;;;;;;;98.10;37.60;;;;;;;-13.59;77.39;100731.04;87886;1279;87692;-64
2021/12/27 03:42:31;;;;;;;86.80;37.50;;;;;;;-13.63;77.40;100729.58;87852;1281;95162;-62
2021/12/27 03:44:47;;;;;;;90.30;35.60;;;;;;;-13.65;77.56;100723.90;87905;1282;81448;-61
2021/12/27 03:46:59;;;;;;;101.30;39.20;;;;;;;-13.58;77.46;100730.51;87865;1282;82556;-66
2021/12/27 03:49:09;;;;;;;98.80;39.40;;;;;;;-13.56;77.67;100732.89;87853;1283;98055;-68
2021/12/27 03:51:23;;;;;;;105.40;40.90;;;;;;;-13.56;77.79;100729.09;87919;1285;87440;-61
2021/12/27 03:53:33;;;;;;;105.50;40.60;;;;;;;-13.54;77.65;100724.71;87887;1285;94574;-61
2021/12/27 03:55:42;;;;;;;104.70;40.90;;;;;;;-13.56;77.59;100724.23;87852;1279;82278;-70
2021/12/27 03:58:07;;;;;;;102.50;40.60;;;;;;;-13.57;77.72;100721.50;87876;1285;83928;-68
2021/12/27 04:00:44;;;;;;;89.50;38.40;;;;;;;-13.63;77.57;100715.20;87888;1283;99223;-61
2021/12/27 04:02:56;;;;;;;94.80;39.20;;;;;;;-13.67;77.65;100715.47;87888;1279;89067;-63
2021/12/27 04:05:10;;;;;;;87.40;38.80;;;;;;;-13.67;77.73;100719.61;87898;1281;94405;-62
2021/12/27 04:07:22;;;;;;;96.70;35.90;;;;;;;-13.67;77.51;100719.10;87864;1282;79957;-62
2021/12/27 04:09:42;;;;;;;90.50;38.80;;;;;;;-13.72;77.73;100719.54;87697;1284;80043;-62
2021/12/27 04:11:51;;;;;;;82.40;36.40;;;;;;;-13.71;77.53;100716.24;87871;1281;99329;-61
2021/12/27 04:14:02;;;;;;;83.00;33.60;;;;;;;-13.74;77.66;100715.42;87863;1283;88948;-61
2021/12/27 04:16:17;;;;;;;82.90;34.10;;;;;;;-13.71;77.50;100716.24;87863;1281;92761;-67
2021/12/27 04:18:27;;;;;;;92.50;37.20;;;;;;;-13.64;77.74;100720.77;87873;1283;81107;-67
2021/12/27 04:20:40;;;;;;;112.50;41.40;;;;;;;-13.61;77.68;100722.60;87905;1282;79614;-62
2021/12/27 04:22:57;;;;;;;106.30;40.20;;;;;;;-13.61;77.54;100726.25;87884;1285;96527;-62
2021/12/27 04:25:07;;;;;;;131.60;44.90;;;;;;;-13.60;77.44;100723.62;87881;1284;89331;-68
2021/12/27 04:27:16;;;;;;;115.90;42.00;;;;;;;-13.63;77.23;100722.32;87878;1282;95397;-68
2021/12/27 04:29:31;;;;;;;120.50;44.90;;;;;;;-13.61;77.59;100722.25;87857;1284;82038;-70
2021/12/27 04:31:43;;;;;;;106.70;40.90;;;;;;;-13.61;77.27;100720.52;87885;1282;80334;-69
2021/12/27 04:33:52;;;;;;;92.90;36.40;;;;;;;-13.58;77.38;100714.92;87865;1284;99076;-69
2021/12/27 04:36:08;;;;;;;99.30;36.80;;;;;;;-13.60;77.39;100713.59;87670;1285;86996;-63
2021/12/27 04:38:17;;;;;;;87.60;34.90;;;;;;;-13.61;77.37;100707.55;87851;1282;95101;-63
2021/12/27 04:40:35;;;;;;;78.70;33.10;;;;;;;-13.69;77.57;100707.71;87893;1279;80662;-71
2021/12/27 04:42:52;;;;;;;88.40;35.90;;;;;;;-13.73;77.43;100703.12;87857;1285;80354;-71
2021/12/27 04:45:03;;;;;;;81.20;34.30;;;;;;;-13.72;77.51;100705.36;87849;1276;96308;-72
2021/12/27 04:47:16;;;;;;;88.30;34.30;;;;;;;-13.73;77.51;100703.82;87907;1282;86840;-72
2021/12/27 04:49:25;;;;;;;83.90;35.90;;;;;;;-13.78;77.59;100704.95;87864;1281;94827;-71
2021/12/27 04:51:35;;;;;;;81.80;35.80;;;;;;;-13.78;77.48;100705.47;87874;1285;80075;-72
2021/12/27 04:53:44;;;;;;;84.60;34.90;;;;;;;-13.74;77.33;100703.50;87882;1285;82294;-72
2021/12/27 04:55:56;;;;;;;84.10;34.80;;;;;;;-13.70;77.50;100701.33;87888;1277;98362;-64
2021/12/27 04:58:12;;;;;;;99.90;40.80;;;;;;;-13.64;77.33;100700.69;87891;1285;87755;-64
2021/12/27 05:00:21;;;;;;;99.00;38.40;;;;;;;-13.67;77.39;100697.45;87920;1281;95411;-64
2021/12/27 05:02:33;;;;;;;93.70;38.70;;;;;;;-13.65;77.15;100696.20;87876;1282;81175;-67
2021/12/27 05:04:46;;;;;;;82.20;35.80;;;;;;;-13.68;77.08;100697.48;87872;1283;80680;-65
2021/12/27 05:06:57;;;;;;;90.80;37.60;;;;;;;-13.70;77.12;100702.71;87849;1281;96399;-67
2021/12/27 05:09:11;;;;;;;88.70;38.10;;;;;;;-13.71;77.13;100703.96;87896;1282;88618;-65
2021/12/27 05:11:23;;;;;;;92.40;38.10;;;;;;;-13.72;77.26;100703.79;87882;1285;94305;-63
2021/12/27 05:13:33;;;;;;;76.90;32.60;;;;;;;-13.80;77.04;100706.89;87805;1285;83785;-63
2021/12/27 05:15:44;;;;;;;93.30;39.00;;;;;;;-13.86;77.17;100700.08;87846;1282;81077;-70
2021/12/27 05:17:53;;;;;;;91.60;37.80;;;;;;;-13.87;77.02;100700.45;87895;1285;98875;-70
2021/12/27 05:20:08;;;;;;;86.60;36.70;;;;;;;-13.85;77.12;100701.27;87854;1285;87945;-70
2021/12/27 05:22:21;;;;;;;83.50;33.50;;;;;;;-13.82;77.07;100702.61;87853;1283;95939;-72
2021/12/27 05:24:30;;;;;;;80.10;34.90;;;;;;;-13.80;77.24;100698.09;87860;1281;82028;-72
2021/12/27 05:26:43;;;;;;;75.40;34.40;;;;;;;-13.77;77.27;100698.18;87854;1280;80006;-72
2021/12/27 05:28:54;;;;;;;82.50;34.70;;;;;;;-13.84;77.22;100704.73;87882;1284;98483;-72
2021/12/27 05:31:03;;;;;;;74.80;32.50;;;;;;;-13.90;77.10;100707.09;87892;1287;89115;-64
2021/12/27 05:33:17;;;;;;;76.90;34.50;;;;;;;-13.96;77.27;100710.65;87821;1283;94267;-63
2021/12/27 05:35:29;;;;;;;75.60;33.60;;;;;;;-13.97;77.23;100712.25;87886;1285;79368;-64
2021/12/27 05:37:40;;;;;;;78.40;33.10;;;;;;;-13.97;77.33;100713.63;87861;1286;80504;-64
2021/12/27 05:39:49;;;;;;;88.10;35.20;;;;;;;-13.94;77.25;100714.42;87521;1287;98771;-65
2021/12/27 05:41:59;;;;;;;85.00;35.00;;;;;;;-13.93;77.46;100719.27;87880;1285;88840;-64
2021/12/27 05:44:09;;;;;;;82.50;35.20;;;;;;;-13.96;77.54;100718.98;87853;1285;94284;-64
2021/12/27 05:46:19;;;;;;;86.10;34.40;;;;;;;-13.97;77.47;100719.16;87878;1284;79148;-64
2021/12/27 05:48:38;;;;;;;90.50;37.40;;;;;;;-13.96;77.35;100713.79;87884;1282;81050;-65
2021/12/27 05:50:47;;;;;;;92.10;37.60;;;;;;;-13.95;77.32;100716.03;87869;1282;98104;-72
2021/12/27 05:52:56;;;;;;;74.90;34.00;;;;;;;-13.95;77.39;100716.02;87889;1282;88932;-72
2021/12/27 05:55:13;;;;;;;82.50;36.70;;;;;;;-13.96;77.34;100712.23;87829;1283;92934;-64
2021/12/27 05:57:22;;;;;;;87.80;36.10;;;;;;;-13.98;77.35;100708.45;87811;1282;81053;-65
2021/12/27 05:59:30;;;;;;;93.70;38.80;;;;;;;-13.99;77.31;100706.73;87660;1281;81440;-64
2021/12/27 06:01:53;;;;;;;91.30;38.60;;;;;;;-13.98;77.19;100703.10;87869;1285;96646;-70
2021/12/27 06:04:06;;;;;;;98.60;41.70;;;;;;;-13.95;77.09;100701.66;87867;1285;86812;-72
2021/12/27 06:06:16;;;;;;;85.50;38.70;;;;;;;-13.97;77.10;100703.42;87904;1285;95407;-65
2021/12/27 06:08:28;;;;;;;96.90;39.20;;;;;;;-13.98;76.95;100708.98;87875;1282;81668;-65
2021/12/27 06:10:41;;;;;;;95.90;39.70;;;;;;;-14.05;77.10;100714.31;87905;1286;83260;-70
2021/12/27 06:12:50;;;;;;;90.00;37.30;;;;;;;-14.10;77.03;100716.64;87908;1282;99166;-72
2021/12/27 06:15:00;;;;;;;99.20;38.90;;;;;;;-14.10;77.06;100716.11;87896;1286;88745;-70
2021/12/27 06:17:13;;;;;;;95.30;39.10;;;;;;;-14.14;77.06;100716.90;87880;1285;95783;-71
2021/12/27 06:19:25;;;;;;;97.00;41.60;;;;;;;-14.20;77.00;100719.09;87871;1279;80596;-71
2021/12/27 06:21:37;;;;;;;98.90;39.60;;;;;;;-14.21;77.18;100718.23;87871;1285;82463;-64
2021/12/27 06:23:47;;;;;;;94.60;39.40;;;;;;;-14.19;77.07;100716.48;87877;1286;98187;-64
2021/12/27 06:25:56;;;;;;;101.00;40.40;;;;;;;-14.19;76.96;100717.86;87878;1285;87986;-71
2021/12/27 06:28:09;;;;;;;93.60;39.10;;;;;;;-14.22;77.18;100715.83;87878;1285;93774;-71
2021/12/27 06:30:20;;;;;;;90.70;39.60;;;;;;;-14.23;77.25;100715.50;87922;1279;79918;-64
2021/12/27 06:32:32;;;;;;;90.50;38.90;;;;;;;-14.25;77.00;100718.31;87876;1283;82584;-63
2021/12/27 06:34:48;;;;;;;100.60;39.00;;;;;;;-14.21;77.28;100717.21;87896;1280;97788;-69
2021/12/27 06:37:00;;;;;;;84.90;37.40;;;;;;;-14.18;76.95;100716.98;87871;1282;89161;-63
2021/12/27 06:39:09;;;;;;;91.60;37.60;;;;;;;-14.17;77.27;100715.21;87865;1285;95531;-63
2021/12/27 06:41:18;;;;;;;93.50;39.70;;;;;;;-14.20;77.14;100717.19;87880;1285;79399;-70
2021/12/27 06:43:31;;;;;;;91.80;40.10;;;;;;;-14.24;77.20;100715.35;87876;1282;80335;-69
2021/12/27 06:45:43;;;;;;;97.50;40.70;;;;;;;-14.24;77.28;100715.00;87827;1276;96416;-65
2021/12/27 06:47:53;;;;;;;94.20;38.40;;;;;;;-14.23;77.16;100720.02;87896;1285;88039;-65
2021/12/27 06:50:06;;;;;;;86.80;38.00;;;;;;;-14.24;77.23;100719.69;87866;1281;95604;-63
2021/12/27 06:52:16;;;;;;;92.20;41.10;;;;;;;-14.20;77.19;100725.48;87882;1285;79017;-65
2021/12/27 06:54:27;;;;;;;94.10;38.80;;;;;;;-14.18;77.25;100727.35;87902;1282;80283;-64
2021/12/27 06:56:38;;;;;;;93.80;39.10;;;;;;;-14.16;77.34;100725.05;87902;1285;97684;-69
2021/12/27 06:58:47;;;;;;;84.80;36.60;;;;;;;-14.14;77.26;100725.90;87837;1285;88924;-71
2021/12/27 07:00:59;;;;;;;91.00;38.30;;;;;;;-14.10;77.21;100727.54;87796;1285;93235;-69
2021/12/27 07:03:14;;;;;;;61.80;28.30;;;;;;;-14.06;77.29;100734.05;87883;1282;80387;-69
2021/12/27 07:05:27;;;;;;;89.20;40.10;;;;;;;-14.05;77.31;100734.36;87885;1285;81032;-62
2021/12/27 07:07:42;;;;;;;83.90;38.80;;;;;;;-13.98;77.25;100729.91;87905;1288;98447;-62
2021/12/27 07:09:52;;;;;;;89.80;37.40;;;;;;;-13.97;77.13;100730.42;87917;1282;87768;-63
2021/12/27 07:12:06;;;;;;;89.00;37.50;;;;;;;-13.96;77.24;100725.37;87863;1284;95305;-62
2021/12/27 07:14:24;;;;;;;85.70;38.10;;;;;;;-13.86;77.30;100724.83;87872;1279;79750;-63
2021/12/27 07:16:37;;;;;;;96.00;39.40;;;;;;;-13.76;77.25;100724.13;87924;1276;80085;-63
2021/12/27 07:18:47;;;;;;;85.60;36.30;;;;;;;-13.71;77.28;100723.51;87883;1285;98023;-63
2021/12/27 07:20:59;;;;;;;87.40;37.60;;;;;;;-13.71;77.17;100722.81;87893;1285;88249;-69
2021/12/27 07:23:13;;;;;;;87.70;37.00;;;;;;;-13.61;77.11;100726.78;87907;1282;95043;-72
2021/12/27 07:25:21;;;;;;;;;;;;;;;-13.56;77.03;100729.44;87904;1285;81048;-65
2021/12/27 07:27:33;;;;;;;81.40;35.30;;;;;;;-13.51;77.31;100730.02;87903;1285;81457;-64
2021/12/27 07:29:46;;;;;;;91.50;38.10;;;;;;;-13.49;77.18;100731.53;87886;1282;98701;-66
2021/12/27 07:31:59;;;;;;;100.00;39.80;;;;;;;-13.42;77.08;100728.61;87890;1285;87515;-63
2021/12/27 07:34:13;;;;;;;90.60;40.90;;;;;;;-13.37;77.11;100735.25;87822;1285;95506;-62
2021/12/27 07:36:25;;;;;;;94.70;38.50;;;;;;;-13.22;77.13;100734.27;87889;1283;79909;-68
2021/12/27 07:38:40;;;;;;;92.40;40.30;;;;;;;-13.13;77.04;100731.63;87915;1285;81546;-68
2021/12/27 07:40:54;;;;;;;98.30;42.40;;;;;;;-12.97;77.18;100731.74;87810;1285;97691;-62
2021/12/27 07:43:07;;;;;;;94.00;42.60;;;;;;;-12.88;77.14;100734.13;87890;1282;88666;-62
2021/12/27 07:45:17;;;;;;;100.00;42.70;;;;;;;-12.86;77.20;100732.69;87890;1286;94565;-63
2021/12/27 07:47:29;;;;;;;103.20;45.10;;;;;;;-12.63;77.03;100732.33;87751;1288;79797;-58
2021/12/27 07:49:42;;;;;;;109.60;47.40;;;;;;;-12.43;77.07;100730.44;87771;1285;81449;-65
2021/12/27 07:51:51;;;;;;;107.70;47.50;;;;;;;-12.30;77.01;100730.30;87758;1286;99180;-70
2021/12/27 07:54:01;;;;;;;114.90;48.70;;;;;;;-12.05;76.90;100725.81;87759;1291;88121;-70
2021/12/27 07:56:12;;;;;;;118.60;49.60;;;;;;;-11.69;76.64;100725.17;87769;1284;93577;-61
2021/12/27 07:58:23;;;;;;;114.80;47.40;;;;;;;-11.49;76.54;100722.65;87753;1284;79980;-61
2021/12/27 08:00:37;;;;;;;117.90;46.60;;;;;;;-11.37;76.49;100722.33;87728;1284;82225;-60
2021/12/27 08:02:44;;;;;;;;;;;;;;;-11.29;76.49;100727.28;87724;1284;97082;-61
2021/12/27 08:04:56;;;;;;;102.20;45.10;;;;;;;-11.15;76.49;100723.73;87709;1284;89548;-61
2021/12/27 08:07:12;;;;;;;108.20;47.50;;;;;;;-11.03;76.75;100724.93;87747;1276;94241;-61
2021/12/27 08:09:21;;;;;;;99.40;44.20;;;;;;;-10.81;76.48;100725.62;87747;1284;79050;-61
2021/12/27 08:11:34;;;;;;;104.20;47.60;;;;;;;-10.70;76.23;100724.94;87722;1284;81080;-62
2021/12/27 08:13:47;;;;;;;100.70;45.60;;;;;;;-10.62;76.29;100723.83;87766;1277;97277;-61
2021/12/27 08:15:56;;;;;;;105.20;46.50;;;;;;;-10.56;76.29;100727.95;87781;1276;88027;-60
2021/12/27 08:18:09;;;;;;;105.40;46.40;;;;;;;-10.42;76.23;100732.20;87695;1288;96056;-60
2021/12/27 08:20:23;;;;;;;109.50;48.70;;;;;;;-10.39;76.39;100736.99;87744;1284;78977;-60
2021/12/27 08:22:34;;;;;;;110.80;48.70;;;;;;;-10.33;76.15;100730.34;87789;1279;82899;-62
2021/12/27 08:24:46;;;;;;;124.70;52.60;;;;;;;-10.31;76.14;100729.05;87748;1288;99331;-65
2021/12/27 08:27:02;;;;;;;125.80;53.60;;;;;;;-10.29;76.34;100727.94;87726;1284;87073;-69
2021/12/27 08:29:14;;;;;;;115.80;49.90;;;;;;;-10.24;76.34;100728.29;87721;1288;95231;-70
2021/12/27 08:31:26;;;;;;;86.90;37.90;;;;;;;-10.04;76.97;100731.44;87760;1282;79942;-70
2021/12/27 08:33:37;;;;;;;82.00;36.30;;;;;;;-9.54;77.64;100730.83;87732;1288;81256;-71
2021/12/27 08:35:46;;;;;;;70.90;34.20;;;;;;;-8.80;77.81;100730.65;87769;1284;98990;-68
2021/12/27 08:37:58;;;;;;;63.20;31.80;;;;;;;-7.96;77.67;100728.52;87753;1287;89311;-69
2021/12/27 08:40:13;;;;;;;63.00;29.20;;;;;;;-7.12;77.55;100721.61;87744;1284;93989;-69
2021/12/27 08:42:23;;;;;;;59.00;28.90;;;;;;;-6.63;77.34;100719.45;87716;1284;79647;-69
2021/12/27 08:44:35;;;;;;;53.30;26.50;;;;;;;-6.49;77.13;100718.08;87758;1284;82538;-68
2021/12/27 08:46:45;;;;;;;56.70;28.10;;;;;;;-6.59;77.10;100719.63;87857;1280;98894;-61
2021/12/27 08:48:55;;;;;;;64.00;27.80;;;;;;;-6.67;77.08;100718.23;87904;1282;87165;-61
2021/12/27 08:51:04;;;;;;;64.80;28.90;;;;;;;-6.80;77.43;100716.80;87888;1283;94996;-61
2021/12/27 08:53:17;;;;;;;53.50;27.30;;;;;;;-6.80;77.51;100713.63;87906;1283;78543;-62
2021/12/27 08:55:29;;;;;;;55.40;27.90;;;;;;;-6.65;77.74;100715.02;87924;1282;81738;-61
2021/12/27 08:57:39;;;;;;;60.90;30.20;;;;;;;-6.19;77.95;100719.58;87903;1285;99566;-61
2021/12/27 08:59:50;;;;;;;51.90;28.50;;;;;;;-5.59;77.99;100720.11;87781;1285;88739;-69
2021/12/27 09:02:00;;;;;;;60.00;30.20;;;;;;;-4.83;77.37;100716.86;87914;1284;94644;-66
2021/12/27 09:04:12;;;;;;;52.70;28.70;;;;;;;-4.04;76.81;100713.38;87919;1284;79354;-67
2021/12/27 09:06:25;;;;;;;63.30;32.90;;;;;;;-3.30;76.19;100712.78;87912;1282;81369;-61
2021/12/27 09:08:35;;;;;;;60.60;32.10;;;;;;;-2.75;75.50;100711.59;87894;1278;95963;-60
2021/12/27 09:10:45;;;;;;;58.40;32.00;;;;;;;-2.51;75.15;100708.10;87904;1286;87491;-67
2021/12/27 09:12:54;;;;;;;64.10;36.50;;;;;;;-2.29;74.61;100710.69;87909;1284;95556;-68
2021/12/27 09:15:08;;;;;;;57.00;31.50;;;;;;;-2.43;73.99;100708.08;87910;1286;78890;-68
2021/12/27 09:17:18;;;;;;;62.90;33.60;;;;;;;-2.70;73.36;100704.06;87921;1286;82800;-68
2021/12/27 09:19:31;;;;;;;57.00;31.30;;;;;;;-2.72;73.59;100703.66;87945;1286;98795;-67
2021/12/27 09:21:41;;;;;;;57.10;32.20;;;;;;;-3.07;73.30;100698.80;87981;1286;89167;-61
2021/12/27 09:23:54;;;;;;;54.50;29.70;;;;;;;-3.05;73.24;100700.64;87895;1284;93178;-60
2021/12/27 09:26:05;;;;;;;56.00;31.20;;;;;;;-2.53;73.29;100697.48;87933;1286;77063;-61
2021/12/27 09:28:18;;;;;;;57.50;32.60;;;;;;;-2.15;73.02;100694.77;87928;1283;81507;-61
2021/12/27 09:30:28;;;;;;;58.80;33.30;;;;;;;-1.87;73.21;100693.59;87913;1286;98562;-73
2021/12/27 09:32:37;;;;;;;54.10;30.80;;;;;;;-1.33;72.73;100688.11;87908;1282;88037;-62
2021/12/27 09:34:48;;;;;;;60.30;33.80;;;;;;;-0.90;72.40;100678.14;87927;1283;95270;-63
2021/12/27 09:36:58;;;;;;;62.00;36.10;;;;;;;-0.76;72.04;100667.89;87924;1285;79485;-60
2021/12/27 09:39:08;;;;;;;64.80;39.40;;;;;;;-0.66;71.83;100665.86;87911;1286;81009;-61
2021/12/27 09:41:19;;;;;;;63.00;36.90;;;;;;;-0.48;71.61;100666.19;87945;1286;97693;-67
2021/12/27 09:43:29;;;;;;;66.60;38.50;;;;;;;-0.45;71.46;100669.36;87926;1282;87376;-69
2021/12/27 09:45:40;;;;;;;58.90;37.50;;;;;;;-0.39;71.27;100665.52;87905;1282;94424;-69
2021/12/27 09:47:50;;;;;;;64.30;41.10;;;;;;;-0.05;70.08;100663.97;87941;1283;79987;-69
2021/12/27 09:50:00;;;;;;;66.90;42.50;;;;;;;-0.03;70.04;100666.16;87902;1291;82144;-69
2021/12/27 09:52:13;;;;;;;70.30;42.90;;;;;;;0.18;69.92;100665.41;87919;1282;97626;-69
2021/12/27 09:54:23;;;;;;;67.00;39.60;;;;;;;0.34;69.64;100668.95;87923;1283;86521;-70